Time;durP1;ratioP1;P1;durP2;ratioP2;P2;SDS_P1;SDS_P2;PMS_P1;PMS_P2;Temp;Humidity;BMP_temperature;BMP_pressure;BME280_temperature;BME280_humidity;BME280_pressure;Samples;Min_cycle;Max_cycle;Signal;HPM_P1;HPM_P2
2021/01/30 00:00:39;;;;;;;7.07;3.92;;;7.50;63.70;;;;;;5051110;28;20429;-73
2021/01/30 00:03:07;;;;;;;10.95;3.17;;;7.60;61.50;;;;;;5051328;28;20401;-72
2021/01/30 00:05:33;;;;;;;7.57;3.40;;;7.60;61.00;;;;;;5059639;28;20429;-72
2021/01/30 00:07:59;;;;;;;7.38;3.30;;;7.40;62.90;;;;;;5050949;28;20750;-72
2021/01/30 00:10:24;;;;;;;9.90;4.53;;;7.30;65.90;;;;;;5057707;28;20479;-72
2021/01/30 00:12:51;;;;;;;4.90;3.08;;;7.40;65.90;;;;;;5051127;28;20483;-72
2021/01/30 00:15:20;;;;;;;7.85;4.50;;;7.30;65.30;;;;;;5050325;28;20751;-73
2021/01/30 00:17:46;;;;;;;10.10;4.70;;;7.30;68.00;;;;;;5049286;28;20489;-73
2021/01/30 00:20:17;;;;;;;13.23;5.20;;;7.30;67.20;;;;;;5068275;28;20403;-72
2021/01/30 00:22:43;;;;;;;11.30;4.57;;;7.30;66.80;;;;;;5070953;28;20485;-74
2021/01/30 00:25:09;;;;;;;11.27;4.60;;;7.20;67.60;;;;;;5069124;28;20419;-73
2021/01/30 00:27:35;;;;;;;6.27;3.77;;;7.10;68.70;;;;;;5070588;28;20376;-72
2021/01/30 00:30:00;;;;;;;13.20;5.33;;;6.90;76.70;;;;;;5070432;28;20749;-72
2021/01/30 00:32:26;;;;;;;11.13;5.95;;;6.80;80.90;;;;;;5050463;28;20778;-73
2021/01/30 00:34:51;;;;;;;7.68;4.93;;;6.70;83.20;;;;;;5052886;28;20400;-73
2021/01/30 00:37:24;;;;;;;11.23;5.70;;;6.60;83.50;;;;;;5065855;28;20418;-73
2021/01/30 00:39:52;;;;;;;9.05;4.93;;;6.50;83.20;;;;;;5057701;28;20441;-73
2021/01/30 00:42:20;;;;;;;11.70;5.80;;;6.50;84.30;;;;;;5074609;28;20395;-72
2021/01/30 00:44:46;;;;;;;13.43;6.45;;;6.50;85.60;;;;;;5067974;28;20408;-72
2021/01/30 00:47:12;;;;;;;10.23;6.50;;;6.50;86.80;;;;;;5058312;28;20474;-71
2021/01/30 00:49:40;;;;;;;13.73;6.50;;;6.60;86.50;;;;;;5074302;28;20387;-72
2021/01/30 00:52:06;;;;;;;10.07;5.70;;;6.60;84.70;;;;;;5074714;28;20448;-73
2021/01/30 00:54:31;;;;;;;8.77;4.60;;;6.60;79.80;;;;;;5075067;28;20872;-72
2021/01/30 00:56:57;;;;;;;11.97;5.30;;;6.50;77.50;;;;;;5053908;28;20386;-72
2021/01/30 00:59:23;;;;;;;9.17;5.20;;;6.60;76.80;;;;;;5062771;28;20481;-72
2021/01/30 01:01:50;;;;;;;13.38;6.38;;;6.60;76.40;;;;;;5072465;28;20454;-73
2021/01/30 01:04:16;;;;;;;14.00;6.63;;;6.60;76.50;;;;;;5075032;28;20379;-73
2021/01/30 01:06:42;;;;;;;14.13;5.93;;;6.60;75.40;;;;;;5058516;28;20509;-74
2021/01/30 01:09:08;;;;;;;14.32;6.45;;;6.70;74.60;;;;;;5053850;28;20448;-73
2021/01/30 01:11:36;;;;;;;10.63;6.65;;;6.60;74.40;;;;;;5071726;28;20814;-72
2021/01/30 01:14:02;;;;;;;20.40;10.63;;;6.70;73.70;;;;;;5057631;28;20421;-73
2021/01/30 01:16:27;;;;;;;27.17;14.27;;;6.60;71.70;;;;;;5053102;28;20860;-73
2021/01/30 01:18:53;;;;;;;30.10;18.20;;;6.30;71.30;;;;;;5056174;28;20421;-74
2021/01/30 01:21:19;;;;;;;24.10;15.30;;;6.10;72.60;;;;;;5058653;28;20461;-73
2021/01/30 01:23:45;;;;;;;25.23;13.53;;;5.80;72.40;;;;;;5060433;28;20393;-72
2021/01/30 01:26:11;;;;;;;29.88;18.15;;;5.70;74.20;;;;;;5069930;28;20397;-72
2021/01/30 01:28:37;;;;;;;35.15;19.40;;;5.60;76.80;;;;;;5060925;28;20439;-71
2021/01/30 01:31:04;;;;;;;29.50;15.20;;;5.60;76.90;;;;;;5061527;28;20866;-73
2021/01/30 01:33:29;;;;;;;37.55;20.58;;;5.40;75.40;;;;;;5062155;28;20396;-72
2021/01/30 01:35:55;;;;;;;37.70;19.87;;;5.50;78.70;;;;;;5079893;28;20769;-72
2021/01/30 01:38:21;;;;;;;44.70;22.05;;;5.40;73.40;;;;;;5076634;28;20485;-73
2021/01/30 01:40:47;;;;;;;40.15;22.98;;;5.30;75.00;;;;;;5072721;28;20797;-72
2021/01/30 01:43:15;;;;;;;38.93;20.97;;;5.30;75.60;;;;;;5078951;28;20482;-73
2021/01/30 01:45:42;;;;;;;40.72;22.05;;;5.20;74.40;;;;;;5063753;28;20393;-73
2021/01/30 01:48:17;;;;;;;48.20;26.17;;;5.20;75.40;;;;;;5061065;28;20847;-73
2021/01/30 01:50:49;;;;;;;38.13;20.63;;;5.10;74.40;;;;;;5060216;28;20385;-73
2021/01/30 01:53:19;;;;;;;52.92;25.02;;;5.10;75.60;;;;;;5060317;28;20446;-73
2021/01/30 01:55:58;;;;;;;39.25;21.08;;;5.10;74.40;;;;;;5062080;28;20909;-73
2021/01/30 01:58:27;;;;;;;44.90;20.37;;;5.10;72.00;;;;;;5060923;28;20388;-73
2021/01/30 02:00:53;;;;;;;38.67;18.08;;;5.00;72.50;;;;;;5066204;28;20609;-72
2021/01/30 02:03:20;;;;;;;29.38;15.13;;;4.90;71.20;;;;;;5079979;28;20430;-73
2021/01/30 02:05:46;;;;;;;33.50;16.88;;;4.70;69.70;;;;;;5063298;28;20894;-73
2021/01/30 02:08:15;;;;;;;33.58;17.38;;;4.70;70.40;;;;;;5059348;28;20393;-73
2021/01/30 02:10:45;;;;;;;40.70;21.92;;;4.50;69.10;;;;;;5062805;28;20385;-73
2021/01/30 02:13:46;;;;;;;41.10;21.93;;;4.50;71.60;;;;;;5060803;28;20399;-72
2021/01/30 02:16:17;;;;;;;31.10;16.52;;;4.50;72.60;;;;;;5072982;28;20896;-72
2021/01/30 02:19:26;;;;;;;35.85;18.98;;;4.50;69.90;;;;;;5072819;28;20398;-73
2021/01/30 02:22:15;;;;;;;35.70;16.25;;;4.50;70.90;;;;;;5056698;28;20409;-72
2021/01/30 02:24:55;;;;;;;33.17;19.95;;;4.40;67.40;;;;;;5052033;28;20390;-72
2021/01/30 02:27:46;;;;;;;34.95;19.52;;;4.50;69.00;;;;;;5052827;28;20381;-74
2021/01/30 02:30:33;;;;;;;32.40;18.63;;;4.50;66.50;;;;;;5052431;28;20910;-73
2021/01/30 02:33:17;;;;;;;32.05;18.75;;;4.50;68.70;;;;;;5059749;28;20908;-73
2021/01/30 02:36:01;;;;;;;26.10;15.88;;;4.40;71.70;;;;;;5072974;28;20418;-72
2021/01/30 02:38:31;;;;;;;23.23;12.90;;;4.30;71.70;;;;;;5071585;28;20384;-72
2021/01/30 02:41:03;;;;;;;25.73;14.30;;;4.10;69.60;;;;;;5066225;28;20474;-73
2021/01/30 02:43:36;;;;;;;25.05;15.15;;;4.00;72.20;;;;;;5079996;28;20407;-73
2021/01/30 02:46:09;;;;;;;23.40;14.13;;;4.00;70.50;;;;;;5080899;28;20394;-73
2021/01/30 02:48:42;;;;;;;27.42;15.50;;;4.00;68.30;;;;;;5070476;28;20376;-73
2021/01/30 02:51:12;;;;;;;23.70;12.15;;;4.00;68.50;;;;;;5052706;28;20903;-72
2021/01/30 02:53:44;;;;;;;24.70;13.15;;;3.90;64.70;;;;;;5052775;28;20421;-73
2021/01/30 02:56:10;;;;;;;33.15;17.60;;;3.90;65.30;;;;;;5068765;28;20420;-72
2021/01/30 02:58:41;;;;;;;28.60;16.43;;;4.00;66.70;;;;;;5070033;28;20471;-73
2021/01/30 03:01:07;;;;;;;26.38;14.35;;;4.00;66.40;;;;;;5052198;28;20390;-72
2021/01/30 03:03:33;;;;;;;26.45;14.40;;;4.10;64.20;;;;;;5055042;28;20430;-73
2021/01/30 03:06:30;;;;;;;22.27;15.30;;;4.10;61.80;;;;;;5074753;28;20380;-72
2021/01/30 03:09:29;;;;;;;24.02;14.00;;;4.00;61.00;;;;;;4990875;28;20720;-73
2021/01/30 03:12:05;;;;;;;22.88;14.80;;;3.90;61.10;;;;;;5058818;28;20383;-73
2021/01/30 03:14:34;;;;;;;31.65;17.70;;;3.80;62.80;;;;;;5059714;28;20455;-73
2021/01/30 03:17:01;;;;;;;28.70;18.15;;;3.80;65.00;;;;;;5057297;28;20397;-73
2021/01/30 03:19:30;;;;;;;31.05;19.10;;;3.80;66.50;;;;;;5059489;28;20413;-73
2021/01/30 03:22:23;;;;;;;33.17;20.07;;;3.70;67.90;;;;;;5063559;28;20407;-72
2021/01/30 03:24:53;;;;;;;35.90;20.65;;;3.70;68.80;;;;;;5072707;28;20455;-75
2021/01/30 03:27:22;;;;;;;34.15;20.48;;;3.70;69.00;;;;;;5075659;28;20394;-74
2021/01/30 03:29:50;;;;;;;32.83;21.52;;;3.80;66.30;;;;;;5065360;28;20405;-73
2021/01/30 03:32:18;;;;;;;35.92;20.20;;;3.80;66.20;;;;;;5072403;28;20392;-73
2021/01/30 03:34:45;;;;;;;34.35;20.50;;;3.80;66.00;;;;;;5062282;28;20724;-73
2021/01/30 03:37:10;;;;;;;34.60;20.67;;;3.80;66.90;;;;;;5071560;28;20391;-72
2021/01/30 03:39:36;;;;;;;36.22;22.35;;;3.80;67.70;;;;;;5064186;28;21168;-72
2021/01/30 03:42:01;;;;;;;36.10;21.90;;;3.80;69.30;;;;;;5070736;28;20848;-73
2021/01/30 03:44:27;;;;;;;38.77;21.33;;;3.70;65.80;;;;;;5070232;28;20790;-73
2021/01/30 03:46:53;;;;;;;39.57;21.90;;;3.70;66.70;;;;;;5071030;28;20392;-73
2021/01/30 03:49:18;;;;;;;44.55;23.65;;;3.70;72.70;;;;;;5065800;28;20420;-73
2021/01/30 03:51:44;;;;;;;41.03;22.50;;;3.90;74.00;;;;;;5054200;28;20393;-73
2021/01/30 03:54:09;;;;;;;37.93;21.47;;;3.70;67.00;;;;;;5056265;28;20393;-73
2021/01/30 03:56:35;;;;;;;36.20;20.37;;;3.50;67.60;;;;;;5073503;28;20399;-73
2021/01/30 03:59:00;;;;;;;35.20;21.03;;;3.40;69.60;;;;;;5072764;28;20460;-74
2021/01/30 04:01:31;;;;;;;37.40;21.30;;;3.40;70.60;;;;;;5056609;28;20882;-73
2021/01/30 04:03:56;;;;;;;33.50;19.80;;;3.20;70.20;;;;;;5062638;28;20380;-73
2021/01/30 04:06:22;;;;;;;36.17;21.40;;;3.20;71.80;;;;;;5056054;28;20389;-73
2021/01/30 04:08:47;;;;;;;40.80;20.75;;;3.20;71.90;;;;;;5074249;28;20392;-73
2021/01/30 04:11:13;;;;;;;33.57;20.37;;;3.30;70.50;;;;;;5057396;28;20870;-73
2021/01/30 04:13:38;;;;;;;39.03;23.03;;;3.20;70.40;;;;;;5053773;28;20756;-73
2021/01/30 04:16:04;;;;;;;38.27;22.00;;;3.10;71.70;;;;;;5068550;28;20397;-73
2021/01/30 04:18:30;;;;;;;40.25;23.35;;;3.20;70.70;;;;;;5052113;28;20437;-73
2021/01/30 04:20:55;;;;;;;40.13;23.10;;;3.20;69.60;;;;;;5053738;28;20417;-73
2021/01/30 04:23:21;;;;;;;38.20;22.63;;;3.10;68.40;;;;;;5052456;28;20409;-73
2021/01/30 04:25:47;;;;;;;38.60;21.23;;;3.00;68.40;;;;;;5051250;28;20953;-74
2021/01/30 04:28:12;;;;;;;41.15;23.35;;;2.80;67.10;;;;;;5053981;28;20395;-73
2021/01/30 04:30:38;;;;;;;38.87;23.43;;;2.80;69.30;;;;;;5070647;28;20467;-73
2021/01/30 04:33:04;;;;;;;42.40;23.60;;;2.80;69.20;;;;;;5057193;28;20748;-74
2021/01/30 04:35:36;;;;;;;40.58;25.17;;;2.80;68.90;;;;;;5057856;28;20400;-74
2021/01/30 04:38:02;;;;;;;40.50;24.10;;;2.90;69.80;;;;;;5070539;28;20470;-73
2021/01/30 04:40:43;;;;;;;41.80;26.00;;;2.90;68.80;;;;;;5069459;28;20946;-73
2021/01/30 04:43:31;;;;;;;42.80;26.23;;;3.00;70.20;;;;;;5058380;28;20424;-72
2021/01/30 04:46:06;;;;;;;43.88;26.98;;;3.00;68.40;;;;;;5050372;28;20465;-73
2021/01/30 04:49:03;;;;;;;45.13;26.63;;;3.00;69.80;;;;;;5050254;28;20435;-72
2021/01/30 04:52:04;;;;;;;42.47;26.08;;;3.00;68.40;;;;;;5049848;28;20379;-72
2021/01/30 04:54:43;;;;;;;43.25;27.05;;;3.00;68.50;;;;;;5050125;28;20396;-72
2021/01/30 04:57:31;;;;;;;44.60;27.27;;;3.00;67.80;;;;;;5050104;28;20381;-72
2021/01/30 05:00:23;;;;;;;42.67;27.92;;;3.00;66.20;;;;;;5049952;28;20469;-71
2021/01/30 05:03:29;;;;;;;47.00;28.30;;;2.90;68.50;;;;;;5050265;28;20484;-73
2021/01/30 05:06:02;;;;;;;43.88;27.63;;;3.00;68.40;;;;;;5065237;28;21058;-72
2021/01/30 05:08:38;;;;;;;42.25;26.38;;;2.90;66.60;;;;;;5050047;28;20378;-71
2021/01/30 05:11:09;;;;;;;45.25;26.98;;;2.90;67.30;;;;;;5053294;28;20898;-73
2021/01/30 05:13:42;;;;;;;41.28;26.50;;;3.00;67.00;;;;;;5057105;28;20450;-74
2021/01/30 05:16:16;;;;;;;40.63;25.10;;;3.00;66.50;;;;;;5063315;28;20400;-74
2021/01/30 05:18:48;;;;;;;37.63;23.25;;;3.00;62.50;;;;;;5077053;28;20464;-74
2021/01/30 05:21:32;;;;;;;36.55;23.50;;;3.00;61.60;;;;;;5076677;28;20410;-73
2021/01/30 05:23:57;;;;;;;35.50;23.43;;;3.00;62.90;;;;;;5053301;28;20405;-73
2021/01/30 05:26:46;;;;;;;37.25;24.33;;;2.90;60.70;;;;;;5049964;28;20704;-73
2021/01/30 05:29:28;;;;;;;36.95;24.50;;;2.90;62.50;;;;;;5049971;28;20863;-72
2021/01/30 05:32:12;;;;;;;32.45;21.67;;;3.00;62.00;;;;;;5049783;28;20389;-73
2021/01/30 05:34:47;;;;;;;34.55;22.52;;;3.00;60.00;;;;;;5067681;28;20380;-73
2021/01/30 05:37:17;;;;;;;34.28;22.75;;;3.10;62.80;;;;;;5068272;28;20386;-73
2021/01/30 05:39:56;;;;;;;32.42;21.75;;;3.10;58.00;;;;;;5069937;28;20371;-73
2021/01/30 05:42:59;;;;;;;32.30;21.17;;;3.20;57.80;;;;;;5049607;28;20405;-73
2021/01/30 05:45:52;;;;;;;36.25;23.85;;;3.10;56.40;;;;;;5049874;28;20405;-73
2021/01/30 05:48:22;;;;;;;36.85;23.95;;;3.00;57.80;;;;;;5049898;28;20388;-73
2021/01/30 05:51:09;;;;;;;35.03;23.35;;;2.90;57.60;;;;;;5049678;28;20408;-73
2021/01/30 05:53:35;;;;;;;36.40;24.25;;;2.90;59.80;;;;;;5051623;28;20443;-73
2021/01/30 05:56:00;;;;;;;36.60;24.20;;;2.90;59.70;;;;;;5049771;28;20431;-72
2021/01/30 05:58:27;;;;;;;34.97;24.00;;;3.00;61.00;;;;;;5048468;28;21025;-72
2021/01/30 06:01:16;;;;;;;38.90;26.17;;;3.00;60.00;;;;;;5049544;28;20377;-73
2021/01/30 06:04:05;;;;;;;40.03;25.83;;;3.00;61.40;;;;;;5046156;28;20514;-72
2021/01/30 06:06:38;;;;;;;35.40;24.20;;;3.00;59.40;;;;;;5073348;28;20409;-72
2021/01/30 06:09:05;;;;;;;38.50;26.00;;;3.10;60.40;;;;;;5073034;28;20379;-73
2021/01/30 06:11:49;;;;;;;39.07;25.87;;;3.10;57.80;;;;;;5054441;28;20398;-73
2021/01/30 06:14:38;;;;;;;41.88;26.10;;;3.10;57.70;;;;;;5053047;28;20397;-72
2021/01/30 06:17:14;;;;;;;38.70;27.50;;;3.10;58.60;;;;;;5065662;28;20499;-72
2021/01/30 06:19:40;;;;;;;39.08;26.45;;;2.90;60.10;;;;;;5053287;28;20417;-73
2021/01/30 06:22:22;;;;;;;39.20;25.02;;;3.00;61.10;;;;;;5052798;28;20427;-73
2021/01/30 06:24:49;;;;;;;35.03;24.00;;;3.20;58.00;;;;;;5051232;28;20790;-72
2021/01/30 06:27:29;;;;;;;31.45;21.00;;;3.10;56.50;;;;;;5050648;28;20735;-73
2021/01/30 06:29:59;;;;;;;31.15;21.40;;;3.00;55.20;;;;;;5050920;28;20837;-74
2021/01/30 06:32:27;;;;;;;29.42;20.23;;;3.00;56.60;;;;;;5050712;28;20387;-73
2021/01/30 06:35:10;;;;;;;28.13;18.90;;;3.10;53.00;;;;;;5053329;28;20401;-73
2021/01/30 06:37:48;;;;;;;27.90;19.23;;;3.20;51.00;;;;;;5071848;28;20433;-73
2021/01/30 06:40:19;;;;;;;32.20;21.10;;;3.10;52.30;;;;;;5082414;28;20407;-72
2021/01/30 06:42:48;;;;;;;32.13;20.50;;;3.10;52.60;;;;;;5075998;28;20928;-74
2021/01/30 06:45:36;;;;;;;32.58;20.98;;;3.00;52.80;;;;;;5062541;28;20389;-73
2021/01/30 06:48:08;;;;;;;34.65;21.65;;;3.00;53.20;;;;;;5060618;28;20397;-73
2021/01/30 06:50:40;;;;;;;36.43;22.80;;;3.00;54.60;;;;;;5059527;28;20472;-73
2021/01/30 06:53:29;;;;;;;34.20;21.67;;;2.90;56.90;;;;;;5056395;28;20881;-73
2021/01/30 06:56:14;;;;;;;34.93;21.63;;;3.00;53.70;;;;;;5054293;28;20385;-72
2021/01/30 06:58:42;;;;;;;34.53;23.02;;;3.10;53.30;;;;;;5072066;28;20392;-73
2021/01/30 07:01:14;;;;;;;32.95;22.88;;;3.10;55.70;;;;;;5071034;28;20790;-73
2021/01/30 07:04:02;;;;;;;33.20;22.43;;;3.10;54.00;;;;;;5065335;28;20490;-74
2021/01/30 07:07:05;;;;;;;30.35;21.40;;;3.20;55.40;;;;;;5063654;28;20442;-73
2021/01/30 07:10:01;;;;;;;33.33;21.80;;;3.10;53.80;;;;;;5053652;28;20480;-73
2021/01/30 07:12:44;;;;;;;29.33;21.00;;;3.20;52.70;;;;;;5061281;28;20407;-73
2021/01/30 07:15:20;;;;;;;29.13;19.37;;;3.10;52.00;;;;;;5063226;28;20401;-73
2021/01/30 07:18:25;;;;;;;28.20;20.05;;;3.00;52.80;;;;;;5067797;28;20408;-73
2021/01/30 07:21:18;;;;;;;29.63;19.60;;;3.00;53.10;;;;;;5062869;28;20396;-73
2021/01/30 07:24:08;;;;;;;26.50;18.60;;;3.10;52.80;;;;;;5052356;28;20413;-73
2021/01/30 07:26:46;;;;;;;26.30;18.75;;;3.00;53.50;;;;;;5070172;28;20931;-72
2021/01/30 07:29:22;;;;;;;27.13;18.60;;;2.90;54.90;;;;;;5051161;28;20874;-72
2021/01/30 07:32:03;;;;;;;25.05;18.00;;;2.90;54.60;;;;;;5056114;28;20400;-73
2021/01/30 07:34:36;;;;;;;23.48;17.17;;;3.10;55.00;;;;;;5054426;28;20385;-73
2021/01/30 07:37:11;;;;;;;22.60;17.23;;;3.10;52.50;;;;;;5063830;28;20901;-73
2021/01/30 07:39:48;;;;;;;23.98;17.48;;;3.20;52.70;;;;;;5064388;28;20450;-72
2021/01/30 07:42:41;;;;;;;26.65;17.35;;;3.10;55.00;;;;;;5059983;28;20404;-73
2021/01/30 07:45:13;;;;;;;22.98;17.13;;;3.10;55.20;;;;;;5049828;28;20408;-72
2021/01/30 07:47:53;;;;;;;19.40;15.50;;;3.10;53.60;;;;;;5050841;28;20389;-72
2021/01/30 07:50:30;;;;;;;20.58;15.82;;;3.10;53.20;;;;;;5060671;28;20707;-72
2021/01/30 07:53:14;;;;;;;18.63;14.73;;;3.30;52.50;;;;;;5063085;28;20612;-73
2021/01/30 07:56:07;;;;;;;18.20;13.70;;;3.20;51.90;;;;;;5066216;28;20508;-73
2021/01/30 07:58:52;;;;;;;15.60;11.93;;;3.20;49.70;;;;;;5073629;28;20729;-73
2021/01/30 08:01:41;;;;;;;14.77;12.70;;;3.30;48.90;;;;;;5065174;28;20949;-72
2021/01/30 08:04:41;;;;;;;16.40;11.75;;;3.30;50.40;;;;;;5068942;28;20483;-73
2021/01/30 08:07:18;;;;;;;14.27;10.80;;;3.30;47.20;;;;;;5061293;28;20416;-72
2021/01/30 08:09:56;;;;;;;13.90;11.00;;;3.40;44.70;;;;;;5065520;28;20384;-73
2021/01/30 08:13:00;;;;;;;12.95;11.20;;;3.30;45.80;;;;;;5067357;28;20397;-73
2021/01/30 08:15:55;;;;;;;13.18;11.27;;;3.20;46.10;;;;;;5064311;28;20894;-73
2021/01/30 08:18:35;;;;;;;13.60;11.77;;;3.30;48.80;;;;;;5065118;28;20417;-73
2021/01/30 08:21:16;;;;;;;13.88;10.82;;;3.20;47.90;;;;;;5065710;28;20393;-72
2021/01/30 08:24:24;;;;;;;13.38;10.80;;;3.10;50.60;;;;;;5064036;28;20772;-72
2021/01/30 08:27:04;;;;;;;13.90;11.10;;;3.20;50.10;;;;;;5055659;28;20426;-73
2021/01/30 08:29:38;;;;;;;11.40;10.13;;;3.20;49.50;;;;;;5051761;28;20890;-73
2021/01/30 08:32:25;;;;;;;12.60;10.63;;;3.40;48.10;;;;;;5052860;28;20417;-73
2021/01/30 08:34:56;;;;;;;10.57;9.20;;;3.20;48.30;;;;;;5059561;28;20384;-72
2021/01/30 08:37:24;;;;;;;14.95;10.30;;;3.40;44.70;;;;;;5051984;28;20397;-74
2021/01/30 08:40:05;;;;;;;11.25;10.00;;;3.40;46.30;;;;;;5052793;28;20392;-74
2021/01/30 08:42:37;;;;;;;12.60;10.13;;;3.40;47.40;;;;;;5051900;28;20933;-76
2021/01/30 08:45:08;;;;;;;11.02;9.32;;;3.40;45.60;;;;;;5063111;28;20429;-74
2021/01/30 08:47:45;;;;;;;12.33;9.33;;;3.50;45.20;;;;;;5060740;28;20730;-75
2021/01/30 08:50:46;;;;;;;10.02;8.65;;;3.60;45.20;;;;;;5066328;28;20457;-79
2021/01/30 08:53:40;;;;;;;9.85;8.85;;;3.60;44.80;;;;;;5059355;28;20486;-75
2021/01/30 08:56:06;;;;;;;9.65;8.75;;;3.60;43.10;;;;;;5054714;28;20492;-76
2021/01/30 08:58:35;;;;;;;12.50;8.75;;;3.70;42.10;;;;;;5058150;28;20414;-75
2021/01/30 09:01:39;;;;;;;15.33;8.90;;;3.80;40.50;;;;;;5060640;28;20402;-75
2021/01/30 09:04:43;;;;;;;10.35;9.25;;;3.80;40.00;;;;;;5060883;28;20399;-75
2021/01/30 09:07:28;;;;;;;11.18;8.95;;;3.80;41.60;;;;;;5062646;28;20405;-74
2021/01/30 09:10:12;;;;;;;9.63;8.18;;;3.90;41.30;;;;;;5058304;28;20455;-75
2021/01/30 09:13:03;;;;;;;9.57;8.50;;;3.80;39.50;;;;;;5063600;28;20391;-74
2021/01/30 09:15:37;;;;;;;10.02;8.40;;;3.80;39.80;;;;;;5056238;28;20732;-75
2021/01/30 09:18:22;;;;;;;9.60;8.40;;;3.90;40.00;;;;;;5048424;28;20899;-75
2021/01/30 09:21:03;;;;;;;9.88;8.88;;;3.80;39.80;;;;;;5049340;28;20844;-73
2021/01/30 09:23:47;;;;;;;9.10;8.20;;;3.70;40.40;;;;;;5052110;28;21044;-74
2021/01/30 09:26:24;;;;;;;8.60;7.88;;;3.80;39.40;;;;;;5057724;28;20401;-73
2021/01/30 09:28:57;;;;;;;13.07;9.20;;;3.80;39.50;;;;;;5066813;28;20483;-75
2021/01/30 09:31:24;;;;;;;11.23;9.40;;;3.50;41.10;;;;;;5062080;28;20402;-73
2021/01/30 09:34:14;;;;;;;12.05;9.43;;;3.50;43.10;;;;;;5056519;28;20886;-75
2021/01/30 09:36:45;;;;;;;10.20;9.10;;;3.60;44.40;;;;;;5064171;28;20477;-74
2021/01/30 09:39:31;;;;;;;9.77;8.77;;;3.80;41.10;;;;;;5063133;28;20403;-75
2021/01/30 09:42:15;;;;;;;10.23;9.13;;;4.00;39.60;;;;;;5070861;28;20419;-75
2021/01/30 09:44:41;;;;;;;14.02;10.70;;;3.90;40.00;;;;;;5071653;28;20405;-73
2021/01/30 09:47:14;;;;;;;117.10;59.63;;;3.70;40.90;;;;;;5062240;28;20484;-76
2021/01/30 09:49:41;;;;;;;62.17;32.60;;;3.80;41.70;;;;;;5067802;28;20403;-78
2021/01/30 09:52:07;;;;;;;111.55;60.45;;;4.00;49.20;;;;;;5064662;28;20407;-78
2021/01/30 09:54:33;;;;;;;31.00;18.83;;;4.20;44.00;;;;;;5057423;28;20417;-78
2021/01/30 09:57:08;;;;;;;33.25;19.48;;;4.40;45.00;;;;;;5069452;28;20421;-74
2021/01/30 09:59:34;;;;;;;18.08;11.48;;;4.40;38.90;;;;;;5052948;28;20393;-73
2021/01/30 10:02:16;;;;;;;65.78;35.47;;;4.40;38.30;;;;;;5061492;28;20416;-73
2021/01/30 10:04:42;;;;;;;35.20;21.17;;;4.50;40.00;;;;;;5061037;28;20399;-71
2021/01/30 10:07:23;;;;;;;45.47;26.23;;;4.50;39.70;;;;;;5055855;28;20388;-72
2021/01/30 10:09:50;;;;;;;54.28;31.02;;;4.60;39.50;;;;;;5070646;28;20397;-72
2021/01/30 10:12:20;;;;;;;12.80;10.23;;;4.70;41.10;;;;;;5062631;28;20400;-77
2021/01/30 10:14:55;;;;;;;111.85;57.88;;;4.80;35.40;;;;;;5060073;28;20755;-74
2021/01/30 10:17:29;;;;;;;21.33;14.55;;;4.70;38.50;;;;;;5066473;28;20998;-73
2021/01/30 10:20:06;;;;;;;24.20;14.47;;;4.70;35.70;;;;;;5072247;28;20440;-74
2021/01/30 10:22:36;;;;;;;15.48;8.93;;;4.70;37.70;;;;;;5053494;28;20413;-74
2021/01/30 10:25:11;;;;;;;12.45;9.45;;;4.70;36.60;;;;;;5061029;28;20389;-75
2021/01/30 10:27:37;;;;;;;12.15;9.40;;;4.60;36.30;;;;;;5067925;28;20408;-73
2021/01/30 10:30:10;;;;;;;8.13;7.30;;;4.70;37.70;;;;;;5070836;28;20404;-74
2021/01/30 10:32:50;;;;;;;7.28;6.57;;;4.60;36.80;;;;;;5070799;28;20415;-74
2021/01/30 10:35:26;;;;;;;10.23;6.80;;;4.70;35.50;;;;;;5063255;28;20761;-75
2021/01/30 10:38:18;;;;;;;7.28;6.68;;;4.60;36.60;;;;;;5062716;28;20396;-74
2021/01/30 10:40:50;;;;;;;8.35;7.20;;;4.60;36.70;;;;;;5070174;28;20796;-74
2021/01/30 10:43:27;;;;;;;7.90;7.10;;;4.70;36.70;;;;;;5071558;28;20399;-74
2021/01/30 10:45:55;;;;;;;6.65;6.03;;;4.80;36.10;;;;;;5052444;28;20389;-74
2021/01/30 10:48:25;;;;;;;7.32;6.63;;;4.90;36.50;;;;;;5053843;28;20392;-74
2021/01/30 10:50:52;;;;;;;6.60;6.00;;;5.00;35.50;;;;;;5066461;28;20403;-73
2021/01/30 10:53:34;;;;;;;6.78;6.18;;;5.00;34.20;;;;;;5057522;28;20655;-75
2021/01/30 10:56:12;;;;;;;7.15;6.30;;;5.00;34.30;;;;;;5055919;28;20401;-72
2021/01/30 10:58:38;;;;;;;6.30;5.72;;;5.10;34.40;;;;;;5051983;28;20798;-72
2021/01/30 11:01:06;;;;;;;5.95;5.45;;;5.10;32.70;;;;;;5051213;28;20389;-73
2021/01/30 11:03:47;;;;;;;6.82;5.78;;;5.00;32.70;;;;;;5070431;28;20974;-75
2021/01/30 11:06:16;;;;;;;5.90;5.40;;;5.20;32.30;;;;;;5071189;28;20434;-72
2021/01/30 11:08:42;;;;;;;6.45;5.85;;;5.00;33.90;;;;;;5055728;28;20478;-73
2021/01/30 11:11:10;;;;;;;6.60;6.00;;;5.00;32.80;;;;;;5057017;28;20472;-72
2021/01/30 11:13:38;;;;;;;5.82;5.43;;;5.10;33.40;;;;;;5069589;28;20431;-75
2021/01/30 11:16:11;;;;;;;6.50;5.90;;;5.00;33.40;;;;;;5072070;28;20388;-75
2021/01/30 11:18:39;;;;;;;6.50;5.90;;;5.00;33.30;;;;;;5052043;28;20417;-72
2021/01/30 11:21:08;;;;;;;6.28;5.70;;;4.90;32.60;;;;;;5051588;28;20435;-74
2021/01/30 11:23:45;;;;;;;6.10;5.57;;;4.90;32.60;;;;;;5067530;28;20900;-73
2021/01/30 11:26:16;;;;;;;5.90;5.25;;;4.80;32.30;;;;;;5071679;28;20379;-76
2021/01/30 11:28:43;;;;;;;5.88;5.38;;;4.80;32.60;;;;;;5070377;28;20399;-72
2021/01/30 11:31:10;;;;;;;5.50;5.10;;;4.80;32.90;;;;;;5071185;28;20407;-73
2021/01/30 11:33:36;;;;;;;5.85;5.25;;;4.70;33.80;;;;;;5059525;28;20900;-74
2021/01/30 11:36:04;;;;;;;5.97;5.38;;;4.60;36.00;;;;;;5068884;28;20399;-74
2021/01/30 11:38:30;;;;;;;5.50;5.10;;;4.50;34.10;;;;;;5066045;28;20494;-73
2021/01/30 11:40:59;;;;;;;5.70;5.20;;;4.60;33.70;;;;;;5070573;28;20782;-74
2021/01/30 11:43:25;;;;;;;5.40;4.90;;;4.60;33.30;;;;;;5055294;28;20508;-73
2021/01/30 11:45:52;;;;;;;5.90;5.40;;;4.60;33.10;;;;;;5052697;28;20401;-73
2021/01/30 11:48:20;;;;;;;6.40;5.80;;;4.50;34.80;;;;;;5057236;28;20408;-74
2021/01/30 11:50:46;;;;;;;6.22;5.63;;;4.60;35.10;;;;;;5053332;28;20394;-76
2021/01/30 11:53:19;;;;;;;5.80;5.20;;;4.60;34.00;;;;;;5051802;28;20401;-75
2021/01/30 11:55:46;;;;;;;5.63;5.20;;;4.80;33.80;;;;;;5065977;28;20391;-73
2021/01/30 11:58:13;;;;;;;5.45;4.95;;;4.90;34.30;;;;;;5065092;28;20396;-72
2021/01/30 12:00:38;;;;;;;5.60;5.10;;;4.80;32.30;;;;;;5050206;28;20515;-73
2021/01/30 12:03:05;;;;;;;5.50;5.00;;;4.60;33.30;;;;;;5052206;28;21158;-74
2021/01/30 12:05:31;;;;;;;5.88;5.30;;;4.70;33.10;;;;;;5063522;28;20415;-72
2021/01/30 12:07:57;;;;;;;5.53;5.03;;;4.90;33.00;;;;;;5066479;28;20411;-77
2021/01/30 12:10:24;;;;;;;5.40;4.90;;;4.60;33.70;;;;;;5052629;28;20404;-76
2021/01/30 12:12:50;;;;;;;5.13;4.72;;;4.70;33.30;;;;;;5058559;28;20400;-74
2021/01/30 12:15:16;;;;;;;4.90;4.50;;;4.90;33.40;;;;;;5051851;28;20393;-75
2021/01/30 12:17:44;;;;;;;5.18;4.63;;;4.90;33.60;;;;;;5052950;28;20462;-74
2021/01/30 12:20:19;;;;;;;5.25;4.32;;;5.20;32.00;;;;;;5050076;28;20432;-76
2021/01/30 12:22:46;;;;;;;4.57;4.17;;;5.30;31.70;;;;;;5050496;28;20810;-74
2021/01/30 12:25:12;;;;;;;4.20;3.90;;;5.40;32.40;;;;;;5053101;28;20401;-74
2021/01/30 12:27:41;;;;;;;5.10;4.70;;;5.60;30.90;;;;;;5070582;28;20463;-75
2021/01/30 12:30:07;;;;;;;4.77;4.27;;;5.70;30.90;;;;;;5066827;28;20431;-75
2021/01/30 12:32:35;;;;;;;4.40;4.00;;;5.60;29.80;;;;;;5050489;28;20396;-75
2021/01/30 12:35:01;;;;;;;4.15;3.85;;;5.70;29.50;;;;;;5053935;28;20869;-76
2021/01/30 12:37:26;;;;;;;4.07;3.53;;;5.60;30.10;;;;;;5070256;28;20388;-74
2021/01/30 12:39:52;;;;;;;4.47;4.07;;;5.60;29.90;;;;;;5068989;28;20900;-75
2021/01/30 12:42:17;;;;;;;4.20;3.90;;;5.40;30.70;;;;;;5052077;28;20950;-71
2021/01/30 12:44:43;;;;;;;4.10;3.80;;;5.30;30.70;;;;;;5069667;28;20403;-72
2021/01/30 12:47:08;;;;;;;4.47;3.28;;;5.10;31.30;;;;;;5065961;28;20404;-72
2021/01/30 12:49:34;;;;;;;4.00;3.70;;;5.40;31.50;;;;;;5051089;28;20417;-72
2021/01/30 12:51:59;;;;;;;4.72;3.67;;;5.40;30.60;;;;;;5056352;28;20490;-73
2021/01/30 12:54:25;;;;;;;4.50;4.10;;;5.50;30.50;;;;;;5070291;28;20395;-71
2021/01/30 12:56:51;;;;;;;5.13;4.30;;;5.60;30.60;;;;;;5057963;28;20425;-74
2021/01/30 12:59:16;;;;;;;3.95;3.67;;;5.70;30.00;;;;;;5051223;28;20436;-72
2021/01/30 13:01:42;;;;;;;4.10;3.80;;;5.80;30.30;;;;;;5054368;28;20759;-75
2021/01/30 13:04:08;;;;;;;3.80;3.50;;;6.00;27.90;;;;;;5070731;28;20391;-73
2021/01/30 13:06:34;;;;;;;3.77;3.47;;;6.10;28.90;;;;;;5068624;28;20392;-72
2021/01/30 13:08:59;;;;;;;4.35;4.00;;;6.40;27.30;;;;;;5057775;28;20424;-73
2021/01/30 13:11:25;;;;;;;3.87;3.57;;;6.50;28.00;;;;;;5057846;28;20416;-74
2021/01/30 13:13:51;;;;;;;3.13;2.90;;;6.40;26.60;;;;;;5064225;28;20501;-72
2021/01/30 13:16:17;;;;;;;4.32;3.92;;;6.40;26.70;;;;;;5053630;28;20389;-72